Time;durP1;ratioP1;P1;durP2;ratioP2;P2;SDS_P1;SDS_P2;PMS_P1;PMS_P2;Temp;Humidity;BMP_temperature;BMP_pressure;BME280_temperature;BME280_humidity;BME280_pressure;Samples;Min_cycle;Max_cycle;Signal;HPM_P1;HPM_P2
2022/04/13 04:15:11;;;;;;;17.17;10.68;;;;;;;1.65;100.00;101044.53;5558834;32;199336;-88
2022/04/13 04:18:15;;;;;;;20.98;12.32;;;;;;;1.64;100.00;101040.16;5544439;32;33109;-88
2022/04/13 04:21:21;;;;;;;18.10;11.57;;;;;;;1.82;100.00;101044.50;5545437;32;33837;-86
2022/04/13 04:24:23;;;;;;;21.23;11.48;;;;;;;1.99;100.00;101045.31;5545061;32;32692;-87
2022/04/13 04:27:26;;;;;;;22.10;11.32;;;;;;;2.20;99.23;101047.88;5544420;32;33622;-87
2022/04/13 04:30:31;;;;;;;20.48;11.07;;;;;;;2.23;98.58;101050.44;5544981;32;34420;-87
2022/04/13 04:33:34;;;;;;;16.33;10.93;;;;;;;2.21;98.71;101058.31;5544498;32;35109;-87
2022/04/13 04:36:36;;;;;;;17.92;10.60;;;;;;;2.24;99.07;101062.66;5544250;32;34609;-87
2022/04/13 04:39:39;;;;;;;19.62;12.88;;;;;;;2.27;99.85;101060.91;5545386;32;32031;-88
2022/04/13 04:42:49;;;;;;;25.10;12.18;;;;;;;2.47;97.09;101059.94;5546758;32;33928;-87
2022/04/13 04:45:52;;;;;;;19.27;11.55;;;;;;;2.65;95.15;101061.59;5544799;32;34186;-87
2022/04/13 04:48:55;;;;;;;21.20;12.32;;;;;;;2.63;95.41;101059.88;5554751;32;34130;-86
2022/04/13 04:51:58;;;;;;;25.42;12.35;;;;;;;2.78;94.12;101057.16;5551249;32;34241;-86
2022/04/13 04:55:00;;;;;;;22.37;11.88;;;;;;;2.75;94.93;101069.38;5545234;32;33531;-87
2022/04/13 04:58:03;;;;;;;24.60;12.48;;;;;;;2.79;94.92;101068.50;5544159;32;32352;-87
2022/04/13 05:01:06;;;;;;;23.10;12.25;;;;;;;2.87;94.70;101063.22;5546583;32;34483;-86
2022/04/13 05:04:09;;;;;;;16.77;10.52;;;;;;;2.97;94.17;101078.84;5556041;32;34667;-87
2022/04/13 05:07:12;;;;;;;17.50;10.85;;;;;;;3.12;92.91;101082.25;5552323;32;34126;-85
2022/04/13 05:10:14;;;;;;;16.83;10.68;;;;;;;3.29;88.92;101076.88;5543559;32;33301;-86
2022/04/13 05:13:20;;;;;;;14.27;9.88;;;;;;;3.52;84.71;101082.81;5545196;32;33868;-86
2022/04/13 05:16:23;;;;;;;15.13;9.90;;;;;;;3.91;82.56;101080.69;5550282;32;33370;-86
2022/04/13 05:19:26;;;;;;;16.98;9.80;;;;;;;5.13;79.45;101079.97;5546806;32;32562;-87
2022/04/13 05:22:36;;;;;;;21.00;10.50;;;;;;;5.93;73.84;101082.09;5553035;32;33146;-87
2022/04/13 05:25:39;;;;;;;15.60;9.23;;;;;;;7.82;64.99;101084.03;5546656;32;33120;-87
2022/04/13 05:28:45;;;;;;;18.05;9.98;;;;;;;9.29;58.80;101078.84;5530276;32;33041;-88
2022/04/13 05:31:48;;;;;;;15.20;9.93;;;;;;;10.66;55.56;101083.75;5530987;32;33001;-87
2022/04/13 05:34:59;;;;;;;16.73;10.13;;;;;;;10.77;51.05;101088.66;5533859;32;33033;-87
2022/04/13 05:38:04;;;;;;;;;;;;;;;10.95;51.32;101089.72;5532397;32;33683;-87
2022/04/13 05:41:07;;;;;;;17.55;9.35;;;;;;;10.81;50.91;101100.03;5530115;32;34271;-87
2022/04/13 05:44:10;;;;;;;17.95;9.10;;;;;;;10.89;50.69;101103.22;5530296;32;33590;-87
2022/04/13 05:47:13;;;;;;;17.10;9.70;;;;;;;11.89;47.13;101101.81;5530036;32;33569;-88
2022/04/13 05:50:17;;;;;;;13.02;9.52;;;;;;;12.45;46.04;101097.56;5576930;26;32744;-88
2022/04/13 05:53:21;;;;;;;13.30;9.80;;;;;;;12.69;45.63;101105.34;5550603;32;33666;-88
2022/04/13 05:56:24;;;;;;;12.88;9.05;;;;;;;12.61;44.91;101102.16;5556088;32;32446;-88
2022/04/13 05:59:36;;;;;;;11.23;8.90;;;;;;;13.83;41.26;101107.84;5562054;32;35161;-88
2022/04/13 06:02:41;;;;;;;13.82;9.63;;;;;;;14.83;38.00;101114.09;5551753;32;35353;-89
2022/04/13 06:05:45;;;;;;;11.82;8.73;;;;;;;15.40;37.17;101109.16;5550164;32;32457;-88
2022/04/13 06:16:11;;;;;;;11.55;8.65;;;;;;;18.67;30.69;101113.16;4077450;29;20116;-89
2022/04/13 06:22:54;;;;;;;11.60;7.68;;;;;;;17.09;32.81;101111.34;5262010;26;20096;-89
2022/04/13 06:29:52;;;;;;;10.82;8.55;;;;;;;18.80;28.90;101121.16;788185;26;20370;-88
2022/04/13 06:32:55;;;;;;;12.43;7.68;;;;;;;19.24;27.81;101126.06;5510818;32;32018;-88
2022/04/13 06:50:51;;;;;;;13.95;8.70;;;;;;;21.49;24.24;101126.44;1347445;26;20172;-85
2022/04/13 06:53:55;;;;;;;14.00;8.48;;;;;;;21.31;24.94;101119.91;5525896;32;32835;-85
2022/04/13 06:56:57;;;;;;;12.50;8.40;;;;;;;21.88;24.37;101119.62;5543808;32;34653;-85
2022/04/13 07:00:00;;;;;;;9.60;8.05;;;;;;;22.76;23.18;101130.00;5535629;32;35183;-86
2022/04/13 07:03:04;;;;;;;12.77;8.30;;;;;;;23.61;22.33;101124.13;5513519;32;32310;-85
2022/04/13 07:06:13;;;;;;;12.37;8.63;;;;;;;22.39;22.84;101125.16;5513436;32;34422;-86
2022/04/13 07:09:36;;;;;;;10.52;8.27;;;;;;;22.24;23.17;101122.81;5543973;32;34356;-86
2022/04/13 07:12:39;;;;;;;13.90;9.00;;;;;;;21.47;23.99;101130.25;5546048;32;35129;-85
2022/04/13 07:15:42;;;;;;;15.70;9.18;;;;;;;21.06;24.17;101122.78;5516713;32;34625;-86
2022/04/13 07:18:46;;;;;;;9.68;8.48;;;;;;;21.38;23.61;101129.19;5520976;32;34537;-85
2022/04/13 07:21:49;;;;;;;12.52;9.30;;;;;;;22.40;23.21;101134.97;5534766;32;34928;-85
2022/04/13 07:25:04;;;;;;;13.57;8.85;;;;;;;22.25;22.90;101134.47;5508232;32;32234;-85
2022/04/13 07:28:07;;;;;;;12.77;8.85;;;;;;;21.64;23.33;101135.09;5527529;32;34550;-90
2022/04/13 07:31:10;;;;;;;11.27;8.80;;;;;;;20.91;24.43;101132.16;5508800;32;32363;-91
2022/04/13 07:34:12;;;;;;;14.85;9.32;;;;;;;22.10;23.19;101136.66;5511564;32;33291;-88
2022/04/13 07:37:15;;;;;;;10.68;8.30;;;;;;;22.94;22.38;101138.31;5529691;32;33730;-87
2022/04/13 07:40:19;;;;;;;14.60;8.90;;;;;;;23.25;21.80;101134.66;5517400;32;32942;-87
2022/04/13 07:43:22;;;;;;;11.90;8.90;;;;;;;22.98;21.42;101133.50;5529250;32;33977;-87
2022/04/13 07:46:27;;;;;;;12.98;8.68;;;;;;;24.22;20.38;101132.00;5500191;32;32998;-86
2022/04/13 07:49:30;;;;;;;12.30;7.80;;;;;;;25.97;18.95;101132.84;5513018;32;34535;-86
2022/04/13 07:52:35;;;;;;;9.20;8.02;;;;;;;27.30;17.29;101132.56;5499678;32;32227;-85
2022/04/13 07:55:38;;;;;;;10.43;8.60;;;;;;;26.07;17.91;101135.47;5507062;32;34247;-86
2022/04/13 07:58:41;;;;;;;11.77;8.15;;;;;;;24.02;19.88;101133.88;5504102;32;34277;-86
2022/04/13 08:01:43;;;;;;;9.73;7.80;;;;;;;23.46;20.75;101129.13;5505329;32;33945;-86
2022/04/13 08:04:47;;;;;;;11.80;7.50;;;;;;;22.68;21.43;101137.97;5510080;32;33772;-86
2022/04/13 08:07:50;;;;;;;9.73;7.62;;;;;;;22.62;21.67;101139.34;5506277;32;32271;-85
2022/04/13 08:10:53;;;;;;;8.70;6.95;;;;;;;21.06;22.67;101132.72;5510662;32;32426;-85
2022/04/13 08:13:56;;;;;;;10.27;6.60;;;;;;;20.95;21.54;101136.28;5508594;32;34440;-84
2022/04/13 08:17:03;;;;;;;10.68;6.90;;;;;;;20.69;23.18;101129.31;5501974;32;34335;-84
2022/04/13 08:20:26;;;;;;;9.35;6.80;;;;;;;19.89;22.98;101129.25;5501681;32;34558;-84
2022/04/13 08:23:29;;;;;;;9.90;7.00;;;;;;;19.98;24.33;101132.22;5506401;32;33287;-83
2022/04/13 08:26:32;;;;;;;10.30;6.80;;;;;;;19.70;23.97;101137.03;5511504;32;35321;-84
2022/04/13 08:29:35;;;;;;;8.18;6.45;;;;;;;20.02;22.99;101139.09;5516002;32;34111;-84
2022/04/13 08:32:39;;;;;;;8.85;6.32;;;;;;;20.50;23.10;101146.13;5502071;32;32887;-84
2022/04/13 08:35:42;;;;;;;11.30;6.53;;;;;;;18.80;23.92;101134.59;5506738;32;33195;-84
2022/04/13 08:38:45;;;;;;;8.82;6.37;;;;;;;19.51;23.96;101136.59;5517732;32;32222;-84
2022/04/13 08:41:55;;;;;;;9.70;6.12;;;;;;;20.07;23.60;101128.84;5506939;32;33416;-83
2022/04/13 08:45:15;;;;;;;8.02;6.05;;;;;;;19.44;23.47;101127.28;5498371;32;32746;-83
2022/04/13 08:48:22;;;;;;;7.72;6.28;;;;;;;20.26;24.16;101120.12;5500302;32;32515;-84
2022/04/13 08:51:26;;;;;;;10.93;6.90;;;;;;;20.16;23.14;101125.41;5515042;32;34308;-83
2022/04/13 08:54:31;;;;;;;7.05;6.35;;;;;;;20.15;22.98;101115.59;5526298;32;33679;-83
2022/04/13 08:57:40;;;;;;;7.90;5.95;;;;;;;20.27;23.64;101126.41;5523141;32;33648;-82
2022/04/13 09:00:48;;;;;;;7.97;6.00;;;;;;;20.57;23.12;101114.16;5517711;32;32996;-88
2022/04/13 09:03:54;;;;;;;8.43;6.10;;;;;;;20.52;24.04;101124.44;5522299;32;34150;-87
2022/04/13 09:07:00;;;;;;;8.70;5.60;;;;;;;21.78;20.85;101119.56;5526576;32;35145;-83
2022/04/13 09:10:04;;;;;;;7.03;5.03;;;;;;;22.07;21.24;101119.75;5525248;32;34944;-83
2022/04/13 09:13:10;;;;;;;6.25;5.00;;;;;;;21.08;20.82;101117.25;5528765;32;33911;-83
2022/04/13 09:16:15;;;;;;;8.20;4.40;;;;;;;21.24;20.63;101112.31;5509753;32;32962;-84
2022/04/13 09:19:18;;;;;;;7.53;4.62;;;;;;;21.11;20.97;101114.31;5528520;32;34760;-85
2022/04/13 09:22:22;;;;;;;5.03;4.37;;;;;;;21.22;21.71;101106.16;5531440;32;34940;-84
2022/04/13 09:25:27;;;;;;;7.07;5.05;;;;;;;21.56;20.43;101115.13;5513343;32;33413;-85
2022/04/13 09:28:29;;;;;;;8.95;4.85;;;;;;;21.66;21.02;101110.63;5520863;32;33073;-85
2022/04/13 09:31:33;;;;;;;6.68;5.03;;;;;;;22.00;21.34;101105.06;5536703;32;34379;-86
2022/04/13 09:34:38;;;;;;;7.25;5.57;;;;;;;21.97;19.94;101099.91;5532159;32;34494;-84
2022/04/13 09:37:41;;;;;;;7.57;6.20;;;;;;;20.41;21.57;101115.37;5523995;32;32331;-84
2022/04/13 09:40:44;;;;;;;8.60;6.07;;;;;;;19.78;22.55;101096.91;5529589;32;33837;-86
2022/04/13 09:43:56;;;;;;;7.20;6.40;;;;;;;21.53;20.98;101106.28;5528784;32;32832;-85
2022/04/13 09:47:10;;;;;;;10.63;6.22;;;;;;;20.29;22.00;101109.13;5545105;32;33954;-85
2022/04/13 09:50:24;;;;;;;7.15;6.40;;;;;;;19.92;22.97;101104.78;5529447;32;32911;-85
2022/04/13 09:53:27;;;;;;;8.50;7.45;;;;;;;20.37;22.65;101099.59;5516776;32;33674;-87
2022/04/13 09:56:30;;;;;;;9.85;7.05;;;;;;;20.97;22.21;101097.44;5517773;32;34674;-86
2022/04/13 09:59:32;;;;;;;10.40;6.75;;;;;;;21.27;21.86;101095.00;5520473;32;32754;-84
2022/04/13 10:02:43;;;;;;;9.40;7.45;;;;;;;20.60;21.96;101092.31;5523191;32;34274;-86
2022/04/13 10:05:54;;;;;;;8.68;6.68;;;;;;;20.20;22.45;101105.34;5505899;32;32652;-86
2022/04/13 10:09:08;;;;;;;14.05;6.93;;;;;;;21.70;21.44;101089.66;5525903;32;34058;-85
2022/04/13 10:12:10;;;;;;;9.23;7.03;;;;;;;24.85;18.87;101086.22;5519133;32;34383;-86
2022/04/13 10:15:13;;;;;;;11.23;6.87;;;;;;;27.34;15.93;101075.88;5501593;32;32696;-84
2022/04/13 10:18:16;;;;;;;10.55;6.97;;;;;;;26.87;15.97;101078.19;5500149;32;32857;-84
2022/04/13 10:21:43;;;;;;;9.10;6.80;;;;;;;25.21;17.90;101077.22;5518381;32;32659;-84
2022/04/13 10:24:46;;;;;;;8.45;7.47;;;;;;;22.42;20.01;101081.66;5518692;32;32364;-84
2022/04/13 10:28:02;;;;;;;9.05;7.30;;;;;;;20.81;21.24;101078.09;5514028;32;32498;-85
2022/04/13 10:31:08;;;;;;;10.23;6.78;;;;;;;21.28;20.38;101069.75;5502257;32;32820;-84
2022/04/13 10:34:11;;;;;;;11.57;6.85;;;;;;;21.93;20.68;101064.22;5513807;32;33857;-84
2022/04/13 10:37:17;;;;;;;18.02;7.22;;;;;;;22.79;20.05;101064.84;5499132;32;32760;-82
2022/04/13 10:40:21;;;;;;;13.32;7.47;;;;;;;21.56;21.58;101069.25;5512618;32;34248;-83
2022/04/13 10:43:30;;;;;;;12.45;7.32;;;;;;;20.55;22.33;101048.72;5500054;32;34173;-83
2022/04/13 10:46:33;;;;;;;10.68;7.15;;;;;;;21.97;20.64;101055.88;5523358;32;33693;-83
2022/04/13 10:49:45;;;;;;;8.48;6.70;;;;;;;24.15;18.21;101053.19;5499677;32;34470;-83
2022/04/13 10:53:12;;;;;;;9.45;7.30;;;;;;;27.17;15.69;101048.62;5499379;32;33038;-83
2022/04/13 10:56:19;;;;;;;9.80;7.45;;;;;;;26.08;18.27;101046.59;5520830;32;34488;-83
2022/04/13 10:59:42;;;;;;;13.07;7.32;;;;;;;24.82;18.04;101040.37;5532303;32;34161;-83
2022/04/13 11:02:56;;;;;;;10.55;7.95;;;;;;;23.93;18.84;101046.25;5518163;32;32934;-82
2022/04/13 11:06:00;;;;;;;8.88;7.50;;;;;;;22.10;20.27;101037.56;5520196;32;34255;-82
2022/04/13 11:09:08;;;;;;;15.02;7.55;;;;;;;22.08;20.50;101040.41;5518412;32;32432;-81
2022/04/13 11:12:11;;;;;;;9.63;7.07;;;;;;;21.13;21.31;101023.34;5521846;32;33993;-82
2022/04/13 11:15:14;;;;;;;10.73;7.62;;;;;;;21.19;22.35;101024.66;5517455;32;32581;-87
2022/04/13 11:18:18;;;;;;;13.48;8.10;;;;;;;19.89;23.13;101015.31;5522039;32;32712;-86
2022/04/13 11:21:21;;;;;;;8.85;7.57;;;;;;;20.72;22.68;101018.53;5546111;32;33948;-86
2022/04/13 11:24:35;;;;;;;10.80;7.90;;;;;;;22.25;21.38;101011.03;5529841;32;32487;-84
2022/04/13 11:27:54;;;;;;;14.57;7.82;;;;;;;21.43;21.44;101012.75;5533013;32;34355;-84
2022/04/13 11:31:10;;;;;;;12.15;8.63;;;;;;;21.01;23.34;101003.63;5517002;32;34460;-83
2022/04/13 11:34:14;;;;;;;11.82;7.55;;;;;;;20.16;23.36;101011.44;5546019;32;33773;-84
2022/04/13 11:37:21;;;;;;;13.00;8.70;;;;;;;20.10;24.25;101002.00;5512512;32;35871;-84
2022/04/13 11:40:24;;;;;;;11.88;8.57;;;;;;;21.13;22.90;100999.06;5519982;32;32168;-84
2022/04/13 11:43:27;;;;;;;13.57;7.87;;;;;;;20.71;22.46;100995.28;5510709;32;34198;-84
2022/04/13 11:46:36;;;;;;;9.95;8.30;;;;;;;20.62;23.00;100992.50;5529079;32;33801;-84
2022/04/13 11:49:57;;;;;;;15.55;8.88;;;;;;;19.80;23.48;100995.38;5517012;32;33093;-84
2022/04/13 11:53:08;;;;;;;13.13;8.02;;;;;;;19.15;25.36;100986.94;5521322;32;33824;-83
2022/04/13 11:56:11;;;;;;;11.55;8.50;;;;;;;19.64;25.04;100984.94;5506152;32;33433;-83
2022/04/13 11:59:50;;;;;;;10.05;7.50;;;;;;;20.20;24.91;100983.25;5518701;32;34227;-84
2022/04/13 12:02:54;;;;;;;11.23;8.88;;;;;;;19.71;24.32;100980.78;5500972;32;32284;-84
2022/04/13 12:06:07;;;;;;;11.93;8.45;;;;;;;19.92;24.18;100980.91;5500297;32;32719;-85
2022/04/13 12:09:10;;;;;;;14.45;9.70;;;;;;;19.69;25.02;100976.50;5497495;32;33753;-89
2022/04/13 12:12:15;;;;;;;14.48;10.07;;;;;;;19.30;25.13;100975.00;5494539;32;32511;-88
2022/04/13 12:15:18;;;;;;;14.98;8.93;;;;;;;19.46;24.12;100971.12;5493741;32;34340;-84
2022/04/13 12:18:23;;;;;;;15.15;9.93;;;;;;;19.52;24.17;100967.94;5493295;32;32515;-84
2022/04/13 12:21:29;;;;;;;13.40;9.63;;;;;;;19.01;24.66;100959.22;5509259;32;32669;-84
2022/04/13 12:24:32;;;;;;;14.15;8.88;;;;;;;18.42;25.36;100959.09;5530770;32;34089;-84
2022/04/13 12:27:34;;;;;;;11.60;8.93;;;;;;;19.27;25.49;100948.34;5495314;32;32551;-84
2022/04/13 12:30:37;;;;;;;14.68;9.77;;;;;;;19.54;25.20;100949.84;5497393;32;32896;-84
2022/04/13 12:33:40;;;;;;;14.52;9.55;;;;;;;19.52;24.60;100949.13;5508160;32;34567;-85
2022/04/13 12:36:49;;;;;;;13.07;9.27;;;;;;;19.78;24.57;100943.50;5509758;32;32904;-84
2022/04/13 12:39:52;;;;;;;14.05;9.45;;;;;;;19.77;24.59;100944.47;5515737;32;34921;-84
2022/04/13 12:42:55;;;;;;;13.10;8.93;;;;;;;18.77;26.06;100925.22;5525016;32;34194;-84
2022/04/13 12:45:58;;;;;;;14.98;9.35;;;;;;;18.83;25.93;100931.94;5524576;32;33967;-84
2022/04/13 12:49:06;;;;;;;13.88;8.82;;;;;;;18.55;26.29;100929.50;5502143;32;33991;-84
2022/04/13 12:52:09;;;;;;;12.65;8.85;;;;;;;18.53;26.25;100926.09;5508677;32;32484;-84
2022/04/13 12:55:12;;;;;;;13.35;8.70;;;;;;;18.88;26.36;100915.44;5508301;32;32433;-84
2022/04/13 12:58:14;;;;;;;13.13;9.73;;;;;;;18.80;28.22;100916.06;5533707;32;33887;-83
2022/04/13 13:01:31;;;;;;;13.82;9.82;;;;;;;18.45;26.05;100910.53;5511621;32;32715;-83
2022/04/13 13:04:41;;;;;;;14.95;10.07;;;;;;;18.70;25.71;100910.50;5530863;32;35148;-84
2022/04/13 13:07:46;;;;;;;14.20;10.18;;;;;;;18.83;25.70;100905.06;5526577;32;34121;-85
2022/04/13 13:10:48;;;;;;;15.27;9.90;;;;;;;18.18;26.19;100906.25;5529242;32;33628;-84
2022/04/13 13:13:51;;;;;;;12.88;9.48;;;;;;;18.20;26.57;100894.53;5524835;32;34801;-84
2022/04/13 13:16:54;;;;;;;14.23;8.88;;;;;;;18.43;26.36;100895.50;5515587;32;32342;-84
2022/04/13 13:20:13;;;;;;;15.85;9.60;;;;;;;18.37;26.06;100893.28;5512332;32;32429;-84
2022/04/13 13:23:22;;;;;;;13.62;9.23;;;;;;;18.73;25.81;100888.78;5515643;32;33201;-85
2022/04/13 13:26:25;;;;;;;12.65;8.63;;;;;;;19.45;25.93;100877.94;5512733;32;33814;-85
2022/04/13 13:29:27;;;;;;;12.40;9.02;;;;;;;19.28;26.00;100882.81;5531452;32;33748;-86
2022/04/13 13:32:36;;;;;;;13.85;9.93;;;;;;;19.02;26.10;100882.13;5532051;32;33470;-86
2022/04/13 13:35:39;;;;;;;12.90;9.30;;;;;;;18.67;27.06;100878.50;5517273;32;35358;-85
2022/04/13 13:38:47;;;;;;;14.32;9.75;;;;;;;18.47;26.59;100888.06;5532059;32;34932;-88
2022/04/13 13:42:08;;;;;;;14.70;9.32;;;;;;;18.17;26.32;100882.19;5533610;32;33985;-88
2022/04/13 13:45:16;;;;;;;13.25;9.00;;;;;;;18.53;26.45;100866.09;5520445;32;32484;-84
2022/04/13 13:48:26;;;;;;;16.77;9.55;;;;;;;18.45;25.60;100867.56;5519369;32;32440;-84
2022/04/13 13:51:31;;;;;;;14.45;9.05;;;;;;;18.62;25.88;100868.13;5533582;32;34496;-84
2022/04/13 13:54:35;;;;;;;14.75;9.77;;;;;;;18.56;26.11;100866.72;5521870;32;32273;-84
2022/04/13 13:57:38;;;;;;;17.40;9.55;;;;;;;18.72;25.11;100861.03;5519537;32;32561;-84
2022/04/13 14:00:41;;;;;;;16.00;9.75;;;;;;;17.80;26.83;100858.88;5512397;32;32612;-84
2022/04/13 14:03:44;;;;;;;15.63;9.95;;;;;;;17.83;26.58;100864.03;5514154;32;33720;-84
2022/04/13 14:06:48;;;;;;;14.18;10.05;;;;;;;18.41;26.15;100860.69;5514281;32;34303;-84
2022/04/13 14:09:51;;;;;;;13.18;9.95;;;;;;;18.32;25.73;100856.88;5513566;32;33729;-84
2022/04/13 14:12:54;;;;;;;13.10;9.73;;;;;;;17.76;27.04;100857.41;5510572;32;33746;-84
2022/04/13 14:15:59;;;;;;;16.90;10.13;;;;;;;18.33;26.07;100844.31;5511841;32;32498;-84
2022/04/13 14:19:02;;;;;;;15.07;10.73;;;;;;;18.41;25.86;100846.44;5523206;32;33656;-84
2022/04/13 14:22:05;;;;;;;12.55;9.27;;;;;;;18.35;25.77;100841.50;5499809;32;32628;-84
2022/04/13 14:25:09;;;;;;;18.12;10.43;;;;;;;18.20;25.88;100838.16;5501181;32;32593;-84
2022/04/13 14:28:18;;;;;;;16.08;10.32;;;;;;;18.16;25.91;100846.41;5518121;32;32628;-84
2022/04/13 14:31:21;;;;;;;16.55;9.85;;;;;;;18.08;25.87;100842.59;5522959;32;34052;-82
2022/04/13 14:34:24;;;;;;;16.60;9.88;;;;;;;17.94;25.72;100839.06;5516959;32;35550;-83
2022/04/13 14:37:27;;;;;;;14.40;10.13;;;;;;;18.33;25.53;100836.25;5532839;32;34664;-83
2022/04/13 14:40:30;;;;;;;12.77;9.32;;;;;;;18.14;25.76;100831.41;5507854;32;32673;-83
2022/04/13 14:43:37;;;;;;;16.33;9.73;;;;;;;18.35;26.17;100841.50;5501428;32;32586;-83
2022/04/13 14:46:42;;;;;;;16.33;9.68;;;;;;;18.35;25.99;100831.62;5514751;32;34485;-83
2022/04/13 14:49:46;;;;;;;12.65;9.55;;;;;;;18.35;25.64;100831.62;5517512;32;34723;-84
2022/04/13 14:52:49;;;;;;;15.85;10.80;;;;;;;18.34;25.92;100834.44;5527382;32;34206;-84
2022/04/13 14:55:52;;;;;;;14.87;10.07;;;;;;;18.01;25.62;100834.97;5501729;32;33444;-84
2022/04/13 14:58:55;;;;;;;14.80;9.85;;;;;;;18.10;25.86;100828.09;5507705;32;32843;-84
2022/04/13 15:01:57;;;;;;;14.80;9.90;;;;;;;18.15;25.99;100828.59;5523706;32;34115;-83
2022/04/13 15:05:00;;;;;;;18.77;10.52;;;;;;;18.29;25.84;100824.88;5519194;32;32316;-84
2022/04/13 15:08:03;;;;;;;14.70;10.00;;;;;;;17.80;26.43;100833.87;5534082;32;34160;-84
2022/04/13 15:11:06;;;;;;;12.82;8.88;;;;;;;18.04;26.20;100840.13;5533434;32;34695;-83
2022/04/13 15:14:11;;;;;;;13.10;9.40;;;;;;;18.22;26.44;100826.31;5533534;32;35088;-83
2022/04/13 15:17:14;;;;;;;16.60;9.80;;;;;;;18.27;26.56;100842.09;5533405;32;34552;-83
2022/04/13 15:20:17;;;;;;;15.30;10.38;;;;;;;18.09;26.72;100837.13;5533542;32;34818;-83
2022/04/13 15:23:20;;;;;;;14.57;10.45;;;;;;;17.84;26.39;100829.97;5519303;32;32673;-87
2022/04/13 15:26:23;;;;;;;14.90;9.73;;;;;;;17.52;26.90;100839.41;5532730;32;34540;-88
2022/04/13 15:29:25;;;;;;;17.08;10.50;;;;;;;17.71;26.87;100838.91;5532930;32;34671;-88
2022/04/13 15:32:28;;;;;;;15.93;10.65;;;;;;;17.60;26.77;100839.72;5520792;32;32514;-88
2022/04/13 15:35:32;;;;;;;16.08;9.85;;;;;;;17.59;26.65;100834.44;5541175;32;35969;-84
2022/04/13 15:38:34;;;;;;;13.50;9.80;;;;;;;17.74;26.59;100832.47;5524303;32;32806;-84
2022/04/13 15:41:42;;;;;;;14.43;10.20;;;;;;;17.64;26.38;100821.56;5532013;32;33977;-84
2022/04/13 15:45:06;;;;;;;14.87;9.98;;;;;;;17.44;26.94;100806.94;5531989;32;34133;-84
2022/04/13 15:48:09;;;;;;;14.80;10.10;;;;;;;17.51;26.51;100801.00;5518409;32;33065;-84
2022/04/13 15:51:12;;;;;;;14.77;9.93;;;;;;;17.51;26.75;100794.78;5518522;32;33077;-84
2022/04/13 15:54:15;;;;;;;14.60;9.27;;;;;;;17.12;27.19;100808.25;5532382;32;33941;-84
2022/04/13 15:57:20;;;;;;;13.57;9.05;;;;;;;17.21;28.22;100802.22;5531830;32;35168;-84
2022/04/13 16:00:24;;;;;;;17.52;10.18;;;;;;;17.02;27.39;100808.06;5498948;32;30713;-83
2022/04/13 16:03:28;;;;;;;13.73;9.48;;;;;;;17.01;27.46;100816.16;5512799;32;33869;-84
